Ulan Bator, Mongolia
Current Conditions -  °F | °C
As of 1:00 AM on Monday 24 Nov 2014 (Local Time) from ZMUB Reporting Station
Clear Clear  
Wind Chill:   Ceiling: Unl
Heat Index:   Visibility: 4mi
Dew Point: -6°   Wind: 2mph
Humidity: 78%   Direction: NA
Pressure: 30.06"   Gusts: NA
Location:  47.92°N, 106.91°E
Report Text: ZMUB 231700Z VRB01MPS 6000NW NSC M18/M21 Q1018 NOSIG RMK QFE656.1 77 NT
Loading
Personal Weather Stations






























Interactive Weather Map New forecast layout! Learn more

10-Day Weather Forecast

Advertisements
Track Severe Weather on mobile